Time;durP1;ratioP1;P1;durP2;ratioP2;P2;SDS_P1;SDS_P2;PMS_P1;PMS_P2;Temp;Humidity;BMP_temperature;BMP_pressure;BME280_temperature;BME280_humidity;BME280_pressure;Samples;Min_cycle;Max_cycle;Signal;HPM_P1;HPM_P2
2022/03/04 00:00:44;;;;;;;24.95;12.45;;;;;;;;;;4977129;28;20506;-63
2022/03/04 00:03:11;;;;;;;27.17;11.98;;;;;;;;;;4982341;28;20038;-63
2022/03/04 00:05:36;;;;;;;23.98;10.95;;;;;;;;;;4983820;28;20046;-64
2022/03/04 00:08:02;;;;;;;25.60;12.75;;;;;;;;;;4987813;28;20467;-63
2022/03/04 00:10:27;;;;;;;26.35;11.45;;;;;;;;;;4989585;28;20081;-63
2022/03/04 00:12:54;;;;;;;25.92;11.93;;;;;;;;;;4987181;28;20027;-63
2022/03/04 00:15:20;;;;;;;27.52;12.52;;;;;;;;;;4983530;28;20046;-63
2022/03/04 00:17:46;;;;;;;26.63;12.13;;;;;;;;;;4994456;28;20435;-63
2022/03/04 00:20:11;;;;;;;26.35;11.98;;;;;;;;;;4989503;28;20525;-63
2022/03/04 00:22:37;;;;;;;24.45;11.70;;;;;;;;;;4992908;28;20035;-63
2022/03/04 00:25:04;;;;;;;24.60;11.07;;;;;;;;;;4992245;28;20068;-63
2022/03/04 00:27:29;;;;;;;28.10;12.68;;;;;;;;;;4994519;28;20054;-63
2022/03/04 00:29:54;;;;;;;29.55;12.55;;;;;;;;;;4993757;28;20058;-62
2022/03/04 00:32:20;;;;;;;29.60;12.43;;;;;;;;;;4993314;28;20553;-63
2022/03/04 00:34:45;;;;;;;30.50;12.55;;;;;;;;;;4992216;28;20033;-63
2022/03/04 00:37:10;;;;;;;28.08;12.85;;;;;;;;;;4992228;28;20026;-63
2022/03/04 00:39:36;;;;;;;27.25;12.27;;;;;;;;;;4993997;28;20446;-63
2022/03/04 00:42:02;;;;;;;27.00;11.90;;;;;;;;;;4993958;28;20045;-63
2022/03/04 00:44:27;;;;;;;28.35;12.77;;;;;;;;;;4992636;28;20034;-64
2022/03/04 00:46:53;;;;;;;27.35;12.05;;;;;;;;;;4993983;28;20026;-63
2022/03/04 00:49:18;;;;;;;28.25;12.63;;;;;;;;;;4991999;28;20395;-64
2022/03/04 00:51:44;;;;;;;28.02;12.60;;;;;;;;;;4992030;28;20092;-63
2022/03/04 00:54:10;;;;;;;30.15;12.73;;;;;;;;;;4990255;28;20034;-63
2022/03/04 00:56:36;;;;;;;30.10;12.90;;;;;;;;;;4983553;28;20053;-63
2022/03/04 00:59:02;;;;;;;28.77;12.00;;;;;;;;;;4982362;28;20030;-63
2022/03/04 01:01:28;;;;;;;26.27;12.65;;;;;;;;;;4993419;28;20113;-63
2022/03/04 01:03:53;;;;;;;26.58;12.82;;;;;;;;;;4991515;28;20106;-62
2022/03/04 01:06:19;;;;;;;31.60;13.52;;;;;;;;;;4992377;28;20392;-62
2022/03/04 01:08:44;;;;;;;31.15;13.15;;;;;;;;;;4992649;28;20042;-64
2022/03/04 01:11:09;;;;;;;31.38;13.38;;;;;;;;;;4991376;28;20169;-64
2022/03/04 01:13:35;;;;;;;26.55;13.10;;;;;;;;;;4993406;28;20027;-63
2022/03/04 01:16:00;;;;;;;30.83;12.88;;;;;;;;;;4993325;28;20042;-64
2022/03/04 01:18:26;;;;;;;30.55;14.00;;;;;;;;;;4988792;28;20032;-63
2022/03/04 01:20:51;;;;;;;29.10;13.40;;;;;;;;;;4992295;28;20057;-63
2022/03/04 01:23:18;;;;;;;29.55;13.23;;;;;;;;;;4992921;28;20030;-62
2022/03/04 01:25:43;;;;;;;29.55;13.48;;;;;;;;;;4992510;28;20035;-63
2022/03/04 01:28:09;;;;;;;29.52;13.23;;;;;;;;;;4990342;28;20034;-62
2022/03/04 01:30:35;;;;;;;29.25;12.57;;;;;;;;;;4975220;28;20110;-63
2022/03/04 01:33:00;;;;;;;30.92;13.40;;;;;;;;;;4992063;28;20038;-64
2022/03/04 01:35:25;;;;;;;34.83;14.27;;;;;;;;;;4991602;28;20040;-63
2022/03/04 01:37:51;;;;;;;31.25;13.23;;;;;;;;;;4993283;28;20036;-63
2022/03/04 01:40:16;;;;;;;31.30;13.63;;;;;;;;;;4990461;28;20042;-62
2022/03/04 01:42:42;;;;;;;28.77;12.48;;;;;;;;;;4992194;28;20040;-63
2022/03/04 01:45:09;;;;;;;28.30;13.52;;;;;;;;;;4992370;28;20031;-62
2022/03/04 01:47:38;;;;;;;32.58;14.13;;;;;;;;;;4993103;28;20117;-63
2022/03/04 01:50:05;;;;;;;31.67;12.80;;;;;;;;;;4989948;28;20526;-62
2022/03/04 01:52:30;;;;;;;32.28;13.57;;;;;;;;;;4988669;28;20166;-63
2022/03/04 01:55:03;;;;;;;30.80;13.55;;;;;;;;;;4979402;28;20078;-62
2022/03/04 01:57:28;;;;;;;29.67;13.55;;;;;;;;;;4990206;28;20022;-63
2022/03/04 01:59:54;;;;;;;30.98;12.85;;;;;;;;;;4992455;28;20046;-62
2022/03/04 02:02:19;;;;;;;32.45;14.38;;;;;;;;;;4989943;28;20030;-62
2022/03/04 02:04:44;;;;;;;31.38;13.57;;;;;;;;;;4989868;28;20356;-64
2022/03/04 02:07:10;;;;;;;31.65;13.50;;;;;;;;;;4981031;28;20034;-63
2022/03/04 02:09:35;;;;;;;32.85;13.05;;;;;;;;;;4991012;28;20181;-63
2022/03/04 02:12:01;;;;;;;29.88;13.20;;;;;;;;;;4987088;28;20364;-63
2022/03/04 02:14:26;;;;;;;35.17;13.90;;;;;;;;;;4992809;28;20458;-63
2022/03/04 02:16:53;;;;;;;29.08;13.50;;;;;;;;;;4991097;28;20038;-63
2022/03/04 02:19:20;;;;;;;33.25;13.05;;;;;;;;;;4999229;28;20420;-63
2022/03/04 02:21:54;;;;;;;33.25;13.85;;;;;;;;;;4982828;28;20463;-63
2022/03/04 02:24:24;;;;;;;31.30;13.60;;;;;;;;;;4993028;28;20035;-62
2022/03/04 02:26:51;;;;;;;31.60;13.63;;;;;;;;;;4991252;28;20657;-63
2022/03/04 02:29:17;;;;;;;31.95;13.52;;;;;;;;;;4991271;28;20034;-63
2022/03/04 02:31:42;;;;;;;35.15;13.38;;;;;;;;;;4990026;28;20036;-64
2022/03/04 02:34:08;;;;;;;32.67;14.10;;;;;;;;;;4992254;28;20043;-62
2022/03/04 02:36:34;;;;;;;32.25;13.52;;;;;;;;;;4989705;28;20118;-64
2022/03/04 02:38:59;;;;;;;34.65;14.57;;;;;;;;;;4991010;28;20031;-63
2022/03/04 02:41:25;;;;;;;29.88;13.80;;;;;;;;;;4991237;28;20038;-63
2022/03/04 02:43:50;;;;;;;33.17;14.00;;;;;;;;;;4992094;28;20079;-63
2022/03/04 02:46:16;;;;;;;30.85;14.57;;;;;;;;;;4989980;28;20068;-63
2022/03/04 02:48:41;;;;;;;34.60;15.18;;;;;;;;;;4991070;28;20030;-63
2022/03/04 02:51:07;;;;;;;31.92;14.25;;;;;;;;;;4988537;28;20375;-63
2022/03/04 02:53:33;;;;;;;32.95;14.68;;;;;;;;;;4988387;28;20045;-63
2022/03/04 02:55:58;;;;;;;32.75;13.65;;;;;;;;;;4991989;28;20053;-63
2022/03/04 02:58:24;;;;;;;32.38;14.27;;;;;;;;;;4987076;28;20468;-63
2022/03/04 03:00:49;;;;;;;33.35;14.10;;;;;;;;;;4991885;28;20042;-64
2022/03/04 03:03:15;;;;;;;34.50;14.38;;;;;;;;;;4990168;28;20107;-64
2022/03/04 03:05:40;;;;;;;32.85;14.07;;;;;;;;;;4971601;28;20030;-65
2022/03/04 03:08:06;;;;;;;33.28;13.80;;;;;;;;;;4987632;28;20061;-64
2022/03/04 03:10:32;;;;;;;31.38;13.38;;;;;;;;;;4988606;28;20022;-63
2022/03/04 03:12:58;;;;;;;34.83;13.60;;;;;;;;;;4990747;28;20034;-64
2022/03/04 03:15:24;;;;;;;34.70;14.70;;;;;;;;;;4984633;28;20038;-63
2022/03/04 03:17:49;;;;;;;31.38;13.63;;;;;;;;;;4992133;28;20042;-63
2022/03/04 03:20:15;;;;;;;34.13;13.95;;;;;;;;;;4988581;28;20026;-62
2022/03/04 03:22:40;;;;;;;30.02;13.23;;;;;;;;;;4989714;28;20108;-63
2022/03/04 03:25:12;;;;;;;33.97;13.88;;;;;;;;;;4975485;28;20542;-63
2022/03/04 03:27:47;;;;;;;35.17;13.75;;;;;;;;;;4990124;28;20030;-62
2022/03/04 03:30:12;;;;;;;36.47;14.82;;;;;;;;;;4990691;28;20038;-63
2022/03/04 03:32:38;;;;;;;32.00;14.25;;;;;;;;;;4988180;28;20026;-62
2022/03/04 03:35:07;;;;;;;36.20;14.18;;;;;;;;;;4986551;28;20058;-63
2022/03/04 03:37:32;;;;;;;33.53;14.23;;;;;;;;;;4986395;28;20034;-63
2022/03/04 03:39:57;;;;;;;34.60;14.45;;;;;;;;;;4991077;28;20044;-62
2022/03/04 03:42:23;;;;;;;32.67;14.13;;;;;;;;;;4988111;28;20030;-63
2022/03/04 03:44:57;;;;;;;30.20;14.65;;;;;;;;;;4989640;28;20038;-62
2022/03/04 03:47:22;;;;;;;35.40;15.25;;;;;;;;;;4987842;28;20487;-63
2022/03/04 03:49:47;;;;;;;36.08;14.55;;;;;;;;;;4995521;28;20030;-63
2022/03/04 03:52:13;;;;;;;34.90;14.98;;;;;;;;;;4996842;28;20367;-62
2022/03/04 03:54:39;;;;;;;30.85;13.30;;;;;;;;;;4995943;28;20043;-64
2022/03/04 03:57:04;;;;;;;33.95;14.32;;;;;;;;;;4997903;28;20030;-62
2022/03/04 03:59:30;;;;;;;29.83;14.10;;;;;;;;;;4994626;28;20384;-63
2022/03/04 04:01:55;;;;;;;33.70;14.10;;;;;;;;;;4997575;28;20034;-63
2022/03/04 04:04:21;;;;;;;34.75;14.25;;;;;;;;;;4996401;28;20033;-62
2022/03/04 04:06:46;;;;;;;35.58;14.70;;;;;;;;;;4996150;28;20117;-64
2022/03/04 04:09:12;;;;;;;32.50;14.07;;;;;;;;;;4996481;28;20707;-64
2022/03/04 04:11:38;;;;;;;34.20;14.73;;;;;;;;;;4996692;28;20066;-63
2022/03/04 04:14:05;;;;;;;34.75;14.65;;;;;;;;;;4995661;28;20068;-63
2022/03/04 04:16:31;;;;;;;32.92;14.20;;;;;;;;;;4994632;28;20379;-63
2022/03/04 04:18:57;;;;;;;35.63;15.57;;;;;;;;;;4998265;28;20037;-63
2022/03/04 04:21:24;;;;;;;36.80;15.05;;;;;;;;;;4993307;28;20113;-62
2022/03/04 04:23:49;;;;;;;36.30;15.07;;;;;;;;;;4986435;28;20089;-62
2022/03/04 04:26:15;;;;;;;34.55;15.23;;;;;;;;;;4995646;28;20034;-62
2022/03/04 04:28:40;;;;;;;36.08;14.73;;;;;;;;;;4997840;28;20038;-63
2022/03/04 04:31:06;;;;;;;39.20;15.30;;;;;;;;;;4993451;28;20062;-63
2022/03/04 04:33:31;;;;;;;38.85;16.05;;;;;;;;;;4988143;28;20038;-63
2022/03/04 04:35:57;;;;;;;36.70;15.48;;;;;;;;;;4994718;28;20363;-63
2022/03/04 04:38:23;;;;;;;40.60;15.18;;;;;;;;;;4994290;28;20053;-62
2022/03/04 04:40:48;;;;;;;34.95;15.05;;;;;;;;;;4995874;28;20562;-64
2022/03/04 04:43:14;;;;;;;35.00;14.88;;;;;;;;;;4996635;28;20388;-63
2022/03/04 04:45:40;;;;;;;35.78;15.75;;;;;;;;;;4994934;28;20026;-63
2022/03/04 04:48:06;;;;;;;35.78;15.23;;;;;;;;;;4996810;28;20034;-63
2022/03/04 04:50:31;;;;;;;33.75;14.43;;;;;;;;;;4995975;28;20066;-62
2022/03/04 04:52:56;;;;;;;34.95;15.18;;;;;;;;;;4996149;28;20090;-63
2022/03/04 04:55:22;;;;;;;38.60;15.60;;;;;;;;;;4995661;28;20524;-63
2022/03/04 04:57:47;;;;;;;39.78;16.05;;;;;;;;;;4997143;28;20102;-63
2022/03/04 05:00:13;;;;;;;36.00;15.05;;;;;;;;;;4992688;28;20049;-63
2022/03/04 05:02:39;;;;;;;35.17;15.45;;;;;;;;;;4985078;28;20467;-63
2022/03/04 05:05:04;;;;;;;37.90;15.73;;;;;;;;;;4986972;28;20039;-63
2022/03/04 05:07:30;;;;;;;37.83;16.27;;;;;;;;;;4993064;28;20084;-63
2022/03/04 05:09:55;;;;;;;38.03;16.25;;;;;;;;;;4994711;28;20469;-63
2022/03/04 05:12:21;;;;;;;37.70;16.05;;;;;;;;;;4992087;28;20081;-63
2022/03/04 05:14:46;;;;;;;34.47;15.23;;;;;;;;;;4995178;28;20030;-63
2022/03/04 05:17:11;;;;;;;38.53;15.60;;;;;;;;;;4993341;28;20034;-63
2022/03/04 05:19:37;;;;;;;39.95;15.30;;;;;;;;;;4990668;28;20034;-64
2022/03/04 05:22:03;;;;;;;38.25;14.57;;;;;;;;;;4992349;28;20423;-63
2022/03/04 05:24:28;;;;;;;37.92;14.98;;;;;;;;;;4993618;28;20121;-63
2022/03/04 05:26:53;;;;;;;40.88;15.18;;;;;;;;;;4993848;28;20034;-63
2022/03/04 05:29:19;;;;;;;37.20;15.65;;;;;;;;;;4992327;28;20045;-63
2022/03/04 05:31:44;;;;;;;40.78;15.80;;;;;;;;;;4994019;28;20522;-63
2022/03/04 05:34:11;;;;;;;36.40;14.90;;;;;;;;;;4993067;28;20026;-63
2022/03/04 05:36:37;;;;;;;34.88;15.80;;;;;;;;;;4993090;28;20506;-63
2022/03/04 05:39:03;;;;;;;36.58;15.75;;;;;;;;;;4994393;28;20030;-64
2022/03/04 05:41:30;;;;;;;43.00;16.38;;;;;;;;;;4992976;28;20089;-63
2022/03/04 05:43:56;;;;;;;40.13;15.95;;;;;;;;;;4994565;28;20030;-63
2022/03/04 05:46:21;;;;;;;35.90;15.18;;;;;;;;;;4993498;28;20129;-63
2022/03/04 05:48:47;;;;;;;37.83;16.00;;;;;;;;;;4993112;28;20105;-64
2022/03/04 05:51:12;;;;;;;39.05;15.88;;;;;;;;;;4989785;28;20034;-62
2022/03/04 05:53:38;;;;;;;39.78;15.73;;;;;;;;;;4982616;28;20519;-67
2022/03/04 05:56:05;;;;;;;41.72;17.13;;;;;;;;;;4992886;28;20121;-72
2022/03/04 05:58:31;;;;;;;41.30;16.27;;;;;;;;;;4993215;28;20038;-68
2022/03/04 06:00:57;;;;;;;36.90;15.55;;;;;;;;;;4993349;28;20037;-70
2022/03/04 06:03:22;;;;;;;37.40;15.98;;;;;;;;;;4993469;28;20028;-68
2022/03/04 06:05:48;;;;;;;39.17;16.63;;;;;;;;;;4993198;28;20074;-70
2022/03/04 06:08:13;;;;;;;38.03;15.07;;;;;;;;;;4993266;28;20080;-69
2022/03/04 06:10:38;;;;;;;39.00;15.80;;;;;;;;;;4981878;28;20350;-74
2022/03/04 06:13:04;;;;;;;36.83;15.20;;;;;;;;;;5002333;28;20040;-73
2022/03/04 06:15:29;;;;;;;35.00;15.48;;;;;;;;;;4996402;28;20027;-73
2022/03/04 06:17:55;;;;;;;37.53;15.45;;;;;;;;;;4993394;28;20416;-73
2022/03/04 06:20:20;;;;;;;38.78;15.43;;;;;;;;;;4992874;28;20042;-73
2022/03/04 06:22:46;;;;;;;38.63;15.77;;;;;;;;;;4992447;28;20392;-73
2022/03/04 06:25:14;;;;;;;38.78;15.02;;;;;;;;;;4993349;28;20050;-72
2022/03/04 06:28:00;;;;;;;39.15;15.80;;;;;;;;;;4992514;28;20058;-72
2022/03/04 06:30:27;;;;;;;37.28;15.38;;;;;;;;;;4989810;28;20034;-68
2022/03/04 06:35:37;;;;;;;32.97;14.98;;;;;;;;;;4991499;28;20534;-71
2022/03/04 06:38:03;;;;;;;39.40;14.70;;;;;;;;;;4993336;28;20034;-73
2022/03/04 06:40:28;;;;;;;38.10;14.85;;;;;;;;;;4991395;28;20034;-71
2022/03/04 06:42:53;;;;;;;33.20;14.60;;;;;;;;;;4992332;28;20545;-68
2022/03/04 06:45:19;;;;;;;39.83;15.60;;;;;;;;;;4992930;28;20042;-71
2022/03/04 06:47:44;;;;;;;40.38;15.27;;;;;;;;;;4991796;28;20153;-70
2022/03/04 06:50:10;;;;;;;33.72;15.05;;;;;;;;;;4992137;28;20073;-71
2022/03/04 06:52:35;;;;;;;30.55;14.85;;;;;;;;;;4991799;28;20579;-70
2022/03/04 06:55:00;;;;;;;38.00;14.15;;;;;;;;;;4991946;28;20042;-71
2022/03/04 06:57:26;;;;;;;36.50;15.00;;;;;;;;;;4990130;28;20061;-71
2022/03/04 06:59:51;;;;;;;39.75;15.02;;;;;;;;;;4991795;28;20448;-69
2022/03/04 07:02:17;;;;;;;41.85;16.38;;;;;;;;;;4992520;28;20026;-68
2022/03/04 07:04:42;;;;;;;39.47;15.57;;;;;;;;;;4990988;28;20647;-72
2022/03/04 07:07:07;;;;;;;35.50;15.30;;;;;;;;;;4992011;28;20026;-72
2022/03/04 07:09:33;;;;;;;35.90;15.85;;;;;;;;;;4991716;28;20460;-72
2022/03/04 07:11:58;;;;;;;36.55;15.40;;;;;;;;;;4992149;28;20090;-70
2022/03/04 07:14:24;;;;;;;39.13;15.45;;;;;;;;;;4991877;28;20456;-69
2022/03/04 07:16:53;;;;;;;39.83;15.82;;;;;;;;;;4992076;28;20026;-70
2022/03/04 07:19:18;;;;;;;37.92;16.10;;;;;;;;;;4991914;28;20388;-72
2022/03/04 07:21:43;;;;;;;36.88;15.55;;;;;;;;;;4991211;28;20043;-72
2022/03/04 07:24:14;;;;;;;37.53;15.68;;;;;;;;;;4991143;28;20038;-72
2022/03/04 07:26:39;;;;;;;38.13;16.08;;;;;;;;;;4991005;28;20426;-67
2022/03/04 07:29:05;;;;;;;41.15;15.77;;;;;;;;;;4991912;28;20034;-68
2022/03/04 07:31:30;;;;;;;41.40;16.75;;;;;;;;;;4990380;28;20034;-72
2022/03/04 07:33:56;;;;;;;37.55;16.60;;;;;;;;;;4990994;28;20042;-72
2022/03/04 07:36:21;;;;;;;42.25;16.85;;;;;;;;;;4990723;28;20092;-67
2022/03/04 07:38:46;;;;;;;39.25;17.02;;;;;;;;;;4989870;28;20542;-69
2022/03/04 07:41:12;;;;;;;39.70;15.93;;;;;;;;;;4991792;28;20058;-73
2022/03/04 07:44:12;;;;;;;37.15;16.95;;;;;;;;;;4989575;28;20092;-69
2022/03/04 07:46:38;;;;;;;37.72;16.13;;;;;;;;;;4977553;28;20157;-71
2022/03/04 07:49:04;;;;;;;40.15;16.30;;;;;;;;;;4978747;28;20483;-71
2022/03/04 07:51:29;;;;;;;40.10;15.65;;;;;;;;;;4988695;28;20030;-71
2022/03/04 07:53:55;;;;;;;36.28;15.73;;;;;;;;;;4990237;28;20037;-72
2022/03/04 07:56:20;;;;;;;37.70;16.80;;;;;;;;;;4987696;28;20062;-69
2022/03/04 07:58:46;;;;;;;39.53;16.50;;;;;;;;;;4990755;28;20626;-69
2022/03/04 08:01:11;;;;;;;40.30;16.92;;;;;;;;;;4990668;28;20034;-73
2022/03/04 08:03:37;;;;;;;40.05;16.27;;;;;;;;;;4989987;28;20026;-71
2022/03/04 08:06:02;;;;;;;42.85;17.25;;;;;;;;;;4991704;28;20038;-75
2022/03/04 08:08:28;;;;;;;42.60;18.63;;;;;;;;;;4990487;28;20030;-70
2022/03/04 08:10:54;;;;;;;43.83;18.65;;;;;;;;;;4977617;28;20488;-74
2022/03/04 08:13:22;;;;;;;42.47;19.00;;;;;;;;;;4972499;28;20039;-73
2022/03/04 08:15:47;;;;;;;45.80;18.52;;;;;;;;;;4984652;28;20034;-72
2022/03/04 08:18:13;;;;;;;43.65;17.83;;;;;;;;;;4985152;28;20125;-72
2022/03/04 08:20:39;;;;;;;45.42;18.52;;;;;;;;;;4990314;28;20066;-71
2022/03/04 08:23:04;;;;;;;40.97;17.95;;;;;;;;;;4990764;28;20026;-70
2022/03/04 08:25:30;;;;;;;43.28;18.77;;;;;;;;;;4980858;28;20079;-71
2022/03/04 08:27:55;;;;;;;40.88;18.52;;;;;;;;;;4991482;28;20069;-69
2022/03/04 08:30:38;;;;;;;37.20;17.42;;;;;;;;;;4991200;28;20061;-69
2022/03/04 08:33:03;;;;;;;42.22;18.25;;;;;;;;;;4988287;28;20391;-68
2022/03/04 08:35:29;;;;;;;39.15;17.33;;;;;;;;;;4994882;28;20038;-67
2022/03/04 08:38:08;;;;;;;43.03;18.95;;;;;;;;;;4994165;28;20056;-68
2022/03/04 08:40:34;;;;;;;43.35;19.02;;;;;;;;;;4991918;28;20147;-68
2022/03/04 08:42:59;;;;;;;41.70;18.63;;;;;;;;;;4995133;28;20483;-70
2022/03/04 08:45:50;;;;;;;38.97;18.00;;;;;;;;;;4995266;28;20038;-66
2022/03/04 08:48:27;;;;;;;48.80;19.23;;;;;;;;;;4923131;29;20058;-67
2022/03/04 08:50:53;;;;;;;53.50;19.17;;;;;;;;;;4924874;29;20044;-68
2022/03/04 08:53:18;;;;;;;48.35;19.92;;;;;;;;;;4934974;29;20044;-69
2022/03/04 08:55:45;;;;;;;44.83;19.95;;;;;;;;;;4933391;29;20062;-68
2022/03/04 08:58:11;;;;;;;40.25;19.38;;;;;;;;;;4934011;29;20047;-71
2022/03/04 09:00:37;;;;;;;39.47;18.27;;;;;;;;;;4928451;29;20059;-68
2022/03/04 09:03:04;;;;;;;46.45;19.45;;;;;;;;;;4922128;29;20091;-70
2022/03/04 09:05:30;;;;;;;46.38;20.35;;;;;;;;;;4921906;29;20052;-68
2022/03/04 09:07:56;;;;;;;47.83;20.13;;;;;;;;;;4931143;29;20039;-70
2022/03/04 09:10:21;;;;;;;44.58;19.80;;;;;;;;;;4925510;29;20044;-70
2022/03/04 09:12:46;;;;;;;45.75;20.52;;;;;;;;;;4898865;29;20048;-71
2022/03/04 09:15:12;;;;;;;44.50;19.52;;;;;;;;;;4921318;29;20114;-69
2022/03/04 09:17:39;;;;;;;42.33;20.15;;;;;;;;;;4931581;29;20035;-72
2022/03/04 09:20:06;;;;;;;46.47;20.30;;;;;;;;;;4912035;29;20043;-71
2022/03/04 09:22:31;;;;;;;45.70;20.15;;;;;;;;;;4914103;29;20040;-70
2022/03/04 09:24:57;;;;;;;44.22;21.15;;;;;;;;;;4963606;28;20076;-70
2022/03/04 09:27:23;;;;;;;45.22;21.00;;;;;;;;;;4994419;28;20030;-70
2022/03/04 09:29:51;;;;;;;46.78;21.65;;;;;;;;;;4993180;28;20041;-71
2022/03/04 09:32:16;;;;;;;49.65;21.35;;;;;;;;;;4994484;28;20030;-71
2022/03/04 09:34:42;;;;;;;45.97;21.98;;;;;;;;;;4992762;28;20052;-72
2022/03/04 09:37:07;;;;;;;46.25;20.55;;;;;;;;;;5009694;28;20099;-70
2022/03/04 09:39:33;;;;;;;47.03;20.77;;;;;;;;;;4991344;28;20395;-71
2022/03/04 09:41:58;;;;;;;47.33;20.63;;;;;;;;;;4992687;28;20121;-71
2022/03/04 09:44:24;;;;;;;44.47;20.15;;;;;;;;;;4994058;28;20057;-68
2022/03/04 09:46:50;;;;;;;47.10;20.55;;;;;;;;;;5006108;28;20030;-67
2022/03/04 09:49:17;;;;;;;43.97;20.88;;;;;;;;;;5013412;28;20045;-69
2022/03/04 09:51:43;;;;;;;49.50;21.33;;;;;;;;;;4995042;28;20042;-72
2022/03/04 09:54:08;;;;;;;44.78;21.20;;;;;;;;;;4992713;28;20361;-67
2022/03/04 09:56:34;;;;;;;42.55;20.23;;;;;;;;;;4993489;28;20607;-73
2022/03/04 09:58:59;;;;;;;42.22;20.23;;;;;;;;;;4993446;28;20029;-68
2022/03/04 10:01:38;;;;;;;40.75;19.55;;;;;;;;;;4993365;28;20376;-69
2022/03/04 10:04:04;;;;;;;40.65;20.17;;;;;;;;;;4993641;28;20041;-71
2022/03/04 10:06:39;;;;;;;45.65;20.45;;;;;;;;;;4992764;28;20035;-71
2022/03/04 10:09:05;;;;;;;41.38;19.25;;;;;;;;;;4993002;28;20045;-73
2022/03/04 10:11:32;;;;;;;39.65;19.55;;;;;;;;;;4992289;28;20034;-70
2022/03/04 10:14:03;;;;;;;40.15;18.70;;;;;;;;;;4993800;28;20034;-73
2022/03/04 10:16:33;;;;;;;40.42;18.83;;;;;;;;;;4992341;28;20035;-68
2022/03/04 10:19:15;;;;;;;41.50;18.92;;;;;;;;;;4993329;28;20052;-72
2022/03/04 10:21:53;;;;;;;40.05;18.40;;;;;;;;;;4992515;28;20037;-72
2022/03/04 10:24:30;;;;;;;35.75;17.20;;;;;;;;;;4993407;28;20034;-71
2022/03/04 10:27:08;;;;;;;37.28;16.83;;;;;;;;;;4991493;28;20031;-71
2022/03/04 10:29:48;;;;;;;35.40;17.75;;;;;;;;;;4991941;28;20045;-73
2022/03/04 10:32:26;;;;;;;35.70;17.42;;;;;;;;;;4993332;28;20038;-70
2022/03/04 10:34:56;;;;;;;37.15;17.40;;;;;;;;;;4991651;28;20046;-73
2022/03/04 10:37:48;;;;;;;34.72;18.25;;;;;;;;;;4992482;28;20039;-68
2022/03/04 10:40:15;;;;;;;37.78;17.48;;;;;;;;;;4967219;28;20047;-72
2022/03/04 10:42:52;;;;;;;35.47;17.65;;;;;;;;;;4988148;28;20054;-68
2022/03/04 10:45:31;;;;;;;37.83;18.02;;;;;;;;;;4973641;28;20396;-71
2022/03/04 10:47:56;;;;;;;34.25;16.73;;;;;;;;;;4990641;28;20030;-68
2022/03/04 10:50:42;;;;;;;32.42;16.13;;;;;;;;;;4992871;28;20043;-68
2022/03/04 10:53:29;;;;;;;30.48;15.55;;;;;;;;;;4992611;28;20049;-72
2022/03/04 10:55:56;;;;;;;31.33;15.55;;;;;;;;;;4992194;28;20061;-66
2022/03/04 10:58:23;;;;;;;32.42;14.85;;;;;;;;;;4991636;28;20050;-68
2022/03/04 11:00:50;;;;;;;29.95;15.65;;;;;;;;;;4991903;28;20065;-69
2022/03/04 11:03:21;;;;;;;28.98;14.80;;;;;;;;;;4992245;28;20035;-69
2022/03/04 11:05:49;;;;;;;27.83;13.55;;;;;;;;;;4992170;28;20192;-70
2022/03/04 11:08:15;;;;;;;27.75;13.57;;;;;;;;;;4992530;28;20471;-67
2022/03/04 11:10:41;;;;;;;28.73;13.65;;;;;;;;;;4991595;28;20045;-72
2022/03/04 11:13:08;;;;;;;28.65;14.70;;;;;;;;;;4992195;28;20042;-70
2022/03/04 11:15:35;;;;;;;26.55;14.05;;;;;;;;;;4991781;28;20057;-72
2022/03/04 11:18:04;;;;;;;26.92;13.95;;;;;;;;;;4992609;28;20058;-67
2022/03/04 11:20:30;;;;;;;25.33;12.93;;;;;;;;;;4990222;28;20030;-71
2022/03/04 11:22:56;;;;;;;27.40;12.95;;;;;;;;;;4991840;28;20093;-68
2022/03/04 11:25:22;;;;;;;27.48;14.30;;;;;;;;;;4992649;28;20419;-73
2022/03/04 11:27:51;;;;;;;26.70;12.88;;;;;;;;;;4990041;28;20034;-71
2022/03/04 11:30:32;;;;;;;25.90;13.02;;;;;;;;;;4991125;28;20494;-72
2022/03/04 11:33:19;;;;;;;29.42;14.57;;;;;;;;;;4991237;28;20044;-72
2022/03/04 11:36:18;;;;;;;26.35;13.55;;;;;;;;;;4990606;28;20280;-72
2022/03/04 11:38:46;;;;;;;24.30;14.27;;;;;;;;;;4990774;28;20254;-69
2022/03/04 11:41:23;;;;;;;26.55;14.32;;;;;;;;;;4992159;28;20484;-71
2022/03/04 11:43:49;;;;;;;26.23;14.85;;;;;;;;;;4991090;28;20034;-69
2022/03/04 11:47:01;;;;;;;26.20;14.73;;;;;;;;;;4991331;28;20030;-67
2022/03/04 11:49:26;;;;;;;24.60;15.73;;;;;;;;;;4985959;28;20042;-67
2022/03/04 11:52:10;;;;;;;24.52;14.40;;;;;;;;;;4991772;28;20459;-69
2022/03/04 11:54:35;;;;;;;26.98;14.80;;;;;;;;;;4990361;28;20077;-69
2022/03/04 11:57:14;;;;;;;25.02;14.95;;;;;;;;;;4992170;28;20458;-71
2022/03/04 11:59:47;;;;;;;26.05;14.63;;;;;;;;;;4988341;28;20043;-72
2022/03/04 12:02:29;;;;;;;24.88;14.88;;;;;;;;;;4981152;28;20030;-69
2022/03/04 12:05:13;;;;;;;24.17;14.98;;;;;;;;;;4991923;28;20030;-70
2022/03/04 12:07:43;;;;;;;25.58;15.05;;;;;;;;;;4990880;28;20503;-72
2022/03/04 12:10:14;;;;;;;27.48;14.88;;;;;;;;;;4995233;28;20026;-70
2022/03/04 12:12:39;;;;;;;;;;;;;;;;;;4994116;28;20038;-67
2022/03/04 12:15:17;;;;;;;26.52;15.48;;;;;;;;;;4994683;28;20381;-66
2022/03/04 12:18:03;;;;;;;25.35;15.00;;;;;;;;;;4987733;28;20411;-68
2022/03/04 12:20:40;;;;;;;26.13;15.68;;;;;;;;;;4992776;28;20061;-68
2022/03/04 12:23:14;;;;;;;28.13;15.18;;;;;;;;;;4994103;28;20037;-70
2022/03/04 12:25:54;;;;;;;25.30;15.60;;;;;;;;;;4994195;28;20041;-70
2022/03/04 12:28:24;;;;;;;25.55;15.77;;;;;;;;;;4994965;28;20113;-69
2022/03/04 12:31:01;;;;;;;24.83;15.45;;;;;;;;;;4994793;28;20080;-70
2022/03/04 12:33:32;;;;;;;23.73;15.05;;;;;;;;;;4994480;28;20034;-68
2022/03/04 12:35:58;;;;;;;26.25;15.90;;;;;;;;;;4994077;28;20104;-69
2022/03/04 12:38:28;;;;;;;21.92;15.18;;;;;;;;;;4994128;28;20046;-68
2022/03/04 12:40:57;;;;;;;23.52;14.52;;;;;;;;;;4995486;28;20038;-72
2022/03/04 12:43:23;;;;;;;24.27;14.50;;;;;;;;;;4994657;28;20073;-70
2022/03/04 12:45:50;;;;;;;23.00;14.98;;;;;;;;;;4994153;28;20436;-69
2022/03/04 12:48:17;;;;;;;25.35;15.50;;;;;;;;;;4994528;28;20030;-70
2022/03/04 12:50:42;;;;;;;23.08;15.00;;;;;;;;;;4994348;28;20089;-71
2022/03/04 12:53:21;;;;;;;25.40;15.40;;;;;;;;;;4994080;28;20046;-71
2022/03/04 12:55:57;;;;;;;23.45;14.75;;;;;;;;;;4994012;28;20054;-69
2022/03/04 12:58:36;;;;;;;22.67;14.73;;;;;;;;;;4994516;28;20031;-70
2022/03/04 13:01:02;;;;;;;22.38;14.52;;;;;;;;;;4995159;28;20042;-69
2022/03/04 13:03:28;;;;;;;22.52;14.65;;;;;;;;;;4993601;28;20038;-69
2022/03/04 13:05:53;;;;;;;22.17;14.15;;;;;;;;;;4994698;28;20034;-71
2022/03/04 13:08:19;;;;;;;24.55;14.05;;;;;;;;;;4994081;28;20062;-70
2022/03/04 13:10:44;;;;;;;21.25;14.00;;;;;;;;;;4993450;28;20026;-70
2022/03/04 13:13:10;;;;;;;21.63;13.48;;;;;;;;;;4994052;28;20038;-70
2022/03/04 13:15:35;;;;;;;22.00;13.52;;;;;;;;;;4994086;28;20041;-69
2022/03/04 13:18:01;;;;;;;21.13;13.27;;;;;;;;;;4994075;28;20045;-66
2022/03/04 13:20:27;;;;;;;20.92;12.70;;;;;;;;;;4992512;28;20419;-66
2022/03/04 13:23:03;;;;;;;19.75;12.60;;;;;;;;;;4993398;28;20084;-68
2022/03/04 13:25:29;;;;;;;21.00;12.00;;;;;;;;;;4993770;28;20174;-67
2022/03/04 13:27:54;;;;;;;18.23;11.95;;;;;;;;;;4994453;28;20106;-67
2022/03/04 13:30:20;;;;;;;20.13;12.57;;;;;;;;;;4994599;28;20521;-69
2022/03/04 13:32:47;;;;;;;18.85;12.40;;;;;;;;;;4990201;28;20556;-68
2022/03/04 13:35:16;;;;;;;20.33;12.05;;;;;;;;;;4994210;28;20034;-67
2022/03/04 13:37:42;;;;;;;21.17;12.60;;;;;;;;;;4993126;28;20041;-68
2022/03/04 13:40:21;;;;;;;18.50;11.50;;;;;;;;;;4994269;28;20034;-68
2022/03/04 13:42:52;;;;;;;17.30;10.70;;;;;;;;;;4987611;28;20081;-70
2022/03/04 13:45:36;;;;;;;16.58;11.05;;;;;;;;;;4976983;28;20062;-66
2022/03/04 13:48:03;;;;;;;17.38;11.30;;;;;;;;;;4993564;28;20499;-71
2022/03/04 13:50:34;;;;;;;21.70;11.80;;;;;;;;;;4991711;28;20068;-70
2022/03/04 13:53:00;;;;;;;;;;;;;;;;;;4993756;28;20158;-70
2022/03/04 13:55:34;;;;;;;18.75;11.23;;;;;;;;;;4993190;28;19999;-69
2022/03/04 13:58:24;;;;;;;17.48;10.93;;;;;;;;;;4993328;28;20038;-70
2022/03/04 14:01:32;;;;;;;18.92;10.23;;;;;;;;;;4974027;28;20127;-69
2022/03/04 14:04:08;;;;;;;19.55;10.90;;;;;;;;;;4989398;28;20038;-69
2022/03/04 14:06:35;;;;;;;19.23;10.30;;;;;;;;;;4993070;28;20030;-69
2022/03/04 14:09:09;;;;;;;16.33;10.40;;;;;;;;;;4992610;28;20484;-69
2022/03/04 14:14:59;;;;;;;17.35;9.85;;;;;;;;;;4957188;28;20050;-69
2022/03/04 14:17:24;;;;;;;19.60;10.23;;;;;;;;;;4974597;28;20027;-69
2022/03/04 14:19:49;;;;;;;25.42;10.73;;;;;;;;;;4992353;28;20108;-69
2022/03/04 14:22:15;;;;;;;20.85;11.50;;;;;;;;;;4993423;28;20034;-69
2022/03/04 14:24:40;;;;;;;17.67;11.07;;;;;;;;;;4991858;28;20459;-68
2022/03/04 14:27:05;;;;;;;18.23;10.48;;;;;;;;;;4994327;28;20375;-67
2022/03/04 14:29:31;;;;;;;18.05;10.57;;;;;;;;;;4993167;28;20113;-67